Terminal Aerodrome Forecast
Issued by NWS Central Illinois

Home | Current Version | Previous Version | Text Only | Print | Product List | Glossary On
Versions: 1 2 3 4 5 6 7 8 9 10 11 12 13 14 15 16 17 18 19 20 21 22 23 24 25 26 27 28 29
000
FTUS43 KILX 300538
TAFPIA
TAF
KPIA 300538Z 3006/0106 04010KT 6SM SHRA BR VCTS OVC007CB
     FM301300 09011KT 3SM SHRA VCTS OVC010CB
     FM301600 12010KT 1 1/2SM SHRA VCTS OVC003CB
     FM302200 15014G21KT 2SM SHRA VCTS OVC008CB
     FM010000 17014G23KT 3SM -SHRA BKN015
     FM010400 21009KT P6SM -SHRA BKN040=

USA.gov is the U.S. government's official web portal to all federal, state and local government web resources and services.